Terminal Aerodrome Forecast
Issued by NWS

Home | Current Version | Previous Version | Text Only | Print | Product List | Glossary On
Versions: 1 2 3 4 5 6 7 8 9 10 11 12 13 14 15 16 17 18 19 20 21 22 23 24 25 26
000
FTUS45 KPSR 311124
TAFIWA
TAF
KIWA 311124Z 3112/0112 11007KT P6SM SKC
     FM311800 28011KT P6SM FEW140 SCT200
     FM010200 28008KT P6SM BKN150 BKN200
     FM010600 14012KT P6SM BKN140 BKN200
      AMD LTD TO CLD VIS AND WIND TIL 311300=

USA.gov is the U.S. government's official web portal to all federal, state and local government web resources and services.